Time;durP1;ratioP1;P1;durP2;ratioP2;P2;SDS_P1;SDS_P2;PMS_P1;PMS_P2;Temp;Humidity;BMP_temperature;BMP_pressure;BME280_temperature;BME280_humidity;BME280_pressure;Samples;Min_cycle;Max_cycle;Signal;HPM_P1;HPM_P2
2021/12/02 00:02:14;;;;;;;1.20;1.00;;;7.30;98.00;;;;;;5013372;28;20484;-66
2021/12/02 00:04:43;;;;;;;1.20;1.00;;;7.40;98.00;;;;;;5013247;28;20464;-65
2021/12/02 00:07:11;;;;;;;1.20;1.00;;;7.40;98.00;;;;;;5013707;28;20480;-66
2021/12/02 00:09:42;;;;;;;1.20;1.00;;;7.50;98.00;;;;;;5013509;28;20474;-66
2021/12/02 00:12:11;;;;;;;1.20;0.90;;;7.50;98.00;;;;;;5013379;28;20460;-65
2021/12/02 00:14:43;;;;;;;1.20;1.00;;;7.50;98.00;;;;;;5013356;28;20462;-66
2021/12/02 00:17:15;;;;;;;1.20;1.00;;;7.50;98.00;;;;;;5013517;28;20458;-65
2021/12/02 00:22:29;;;;;;;1.20;0.90;;;7.40;98.00;;;;;;5013714;28;20556;-66
2021/12/02 00:25:01;;;;;;;1.20;1.00;;;7.20;98.00;;;;;;5013395;28;20454;-66
2021/12/02 00:27:29;;;;;;;1.20;0.90;;;7.20;98.00;;;;;;5013336;28;20459;-66
2021/12/02 00:29:59;;;;;;;1.20;1.00;;;7.30;98.00;;;;;;5013245;28;20462;-66
2021/12/02 00:32:28;;;;;;;1.20;1.00;;;7.20;98.00;;;;;;5013391;28;20461;-65
2021/12/02 00:34:56;;;;;;;1.20;0.90;;;7.30;98.00;;;;;;5012799;28;20499;-65
2021/12/02 00:37:23;;;;;;;1.20;1.00;;;7.30;98.00;;;;;;5013061;28;20877;-66
2021/12/02 00:39:52;;;;;;;1.63;1.10;;;7.20;98.00;;;;;;5011461;28;20498;-66
2021/12/02 00:42:21;;;;;;;1.20;1.00;;;7.10;98.00;;;;;;5012837;28;20457;-65
2021/12/02 00:44:48;;;;;;;1.20;1.00;;;7.10;98.00;;;;;;5012712;28;20520;-66
2021/12/02 00:47:16;;;;;;;1.20;0.90;;;7.10;98.00;;;;;;5011564;28;20517;-66
2021/12/02 00:49:48;;;;;;;1.20;1.00;;;7.00;98.00;;;;;;5012451;28;20495;-65
2021/12/02 00:52:16;;;;;;;1.20;0.97;;;7.10;98.00;;;;;;5012610;28;20936;-65
2021/12/02 00:54:44;;;;;;;1.20;1.00;;;7.00;98.00;;;;;;5012505;28;20802;-65
2021/12/02 00:57:13;;;;;;;1.20;0.90;;;7.00;98.00;;;;;;5012457;28;20490;-66
2021/12/02 00:59:44;;;;;;;1.47;1.10;;;7.00;98.00;;;;;;5012491;28;20461;-66
2021/12/02 01:02:11;;;;;;;1.20;1.00;;;7.00;98.00;;;;;;5012348;28;20547;-65
2021/12/02 01:04:39;;;;;;;1.20;0.90;;;7.10;98.00;;;;;;5012015;28;20462;-66
2021/12/02 01:07:06;;;;;;;1.20;0.93;;;7.10;98.00;;;;;;5011791;28;20484;-66
2021/12/02 01:09:33;;;;;;;1.20;1.00;;;7.10;98.00;;;;;;5011244;28;20970;-66
2021/12/02 01:12:01;;;;;;;1.20;1.00;;;7.00;98.00;;;;;;5012411;28;20480;-65
2021/12/02 01:14:28;;;;;;;1.20;1.00;;;7.00;98.00;;;;;;5011627;28;20494;-65
2021/12/02 01:16:57;;;;;;;1.20;1.00;;;7.10;98.00;;;;;;5012352;28;21029;-66
2021/12/02 01:19:24;;;;;;;1.20;1.00;;;7.10;98.00;;;;;;5012303;28;20499;-66
2021/12/02 01:21:52;;;;;;;1.20;1.00;;;7.10;98.00;;;;;;5012372;28;20458;-65
2021/12/02 01:24:20;;;;;;;1.20;1.00;;;7.00;98.00;;;;;;5011952;28;20827;-65
2021/12/02 01:26:54;;;;;;;1.20;1.00;;;7.00;98.00;;;;;;5012211;28;20458;-66
2021/12/02 01:29:24;;;;;;;1.20;0.93;;;7.00;98.00;;;;;;5012098;28;20464;-65
2021/12/02 01:31:55;;;;;;;1.20;1.00;;;6.90;98.00;;;;;;5012168;28;21108;-65
2021/12/02 01:34:26;;;;;;;1.20;0.90;;;6.80;98.00;;;;;;5011994;28;20468;-66
2021/12/02 01:36:55;;;;;;;1.20;1.00;;;6.80;98.00;;;;;;5012049;28;20490;-66
2021/12/02 01:39:23;;;;;;;1.20;1.00;;;6.70;98.00;;;;;;5012040;28;20904;-66
2021/12/02 01:41:53;;;;;;;1.20;1.00;;;6.80;98.00;;;;;;5012086;28;20521;-66
2021/12/02 01:44:21;;;;;;;1.20;1.00;;;6.70;98.00;;;;;;5011979;28;20947;-66
2021/12/02 01:46:50;;;;;;;1.20;0.90;;;6.70;98.00;;;;;;5012052;28;20503;-65
2021/12/02 01:49:19;;;;;;;1.20;1.00;;;6.60;98.00;;;;;;5010615;28;20464;-66
2021/12/02 01:51:49;;;;;;;1.20;1.00;;;6.50;98.00;;;;;;5012108;28;20918;-65
2021/12/02 01:54:19;;;;;;;1.20;1.00;;;6.50;98.00;;;;;;5011895;28;20457;-66
2021/12/02 01:56:49;;;;;;;1.20;1.00;;;6.50;98.00;;;;;;5011970;28;20581;-65
2021/12/02 01:59:18;;;;;;;1.20;1.00;;;6.50;98.00;;;;;;5011921;28;20465;-66
2021/12/02 02:01:46;;;;;;;1.20;1.00;;;6.50;98.00;;;;;;5011425;28;21063;-66
2021/12/02 02:04:15;;;;;;;1.20;1.00;;;6.50;98.00;;;;;;5011573;28;20503;-66
2021/12/02 02:06:53;;;;;;;1.20;1.00;;;6.60;98.00;;;;;;5011761;28;20524;-64
2021/12/02 02:09:20;;;;;;;1.20;1.00;;;6.60;98.00;;;;;;5011501;28;20489;-64
2021/12/02 02:11:48;;;;;;;1.20;1.00;;;6.50;98.00;;;;;;5011658;28;20514;-64
2021/12/02 02:14:16;;;;;;;1.20;0.90;;;6.40;98.00;;;;;;5011517;28;20473;-65
2021/12/02 02:16:43;;;;;;;1.20;1.00;;;6.30;98.00;;;;;;5012161;28;20484;-64
2021/12/02 02:19:12;;;;;;;1.20;1.00;;;6.30;98.00;;;;;;5015310;28;20463;-65
2021/12/02 02:21:40;;;;;;;1.20;1.00;;;6.30;98.00;;;;;;5015435;28;21031;-64
2021/12/02 02:24:12;;;;;;;1.20;0.90;;;6.30;98.00;;;;;;5015068;28;20459;-64
2021/12/02 02:26:39;;;;;;;1.20;1.10;;;6.20;98.00;;;;;;5015337;28;20460;-64
2021/12/02 02:29:08;;;;;;;1.20;1.10;;;6.30;98.00;;;;;;5015197;28;20542;-64
2021/12/02 02:31:38;;;;;;;1.20;0.90;;;6.30;98.00;;;;;;5015624;28;20584;-64
2021/12/02 02:34:05;;;;;;;1.20;1.00;;;6.40;98.00;;;;;;5015023;28;20489;-65
2021/12/02 02:36:37;;;;;;;1.20;0.90;;;6.20;98.00;;;;;;5015126;28;20527;-65
2021/12/02 02:39:06;;;;;;;1.20;0.90;;;6.10;98.00;;;;;;5015276;28;20611;-64
2021/12/02 02:41:37;;;;;;;1.20;0.90;;;6.00;98.00;;;;;;5015096;28;20490;-64
2021/12/02 02:44:06;;;;;;;1.20;0.93;;;5.90;98.00;;;;;;5014825;28;20455;-64
2021/12/02 02:46:35;;;;;;;1.20;0.97;;;5.80;98.00;;;;;;5013746;28;20484;-64
2021/12/02 02:49:06;;;;;;;1.20;1.00;;;5.80;98.00;;;;;;5014845;28;20971;-65
2021/12/02 02:51:36;;;;;;;1.20;1.00;;;5.70;98.00;;;;;;5014886;28;20491;-64
2021/12/02 02:54:08;;;;;;;1.20;0.93;;;5.80;98.00;;;;;;5014740;28;20463;-65
2021/12/02 02:56:42;;;;;;;1.20;1.00;;;5.80;98.00;;;;;;5014937;28;20496;-65
2021/12/02 02:59:17;;;;;;;1.40;1.13;;;5.80;98.00;;;;;;5014695;28;20506;-64
2021/12/02 03:01:49;;;;;;;1.20;1.00;;;5.80;98.00;;;;;;5014581;28;20467;-66
2021/12/02 03:04:26;;;;;;;1.20;1.00;;;5.80;98.00;;;;;;5014619;28;20546;-64
2021/12/02 03:06:56;;;;;;;1.30;1.10;;;5.70;98.00;;;;;;5014560;28;20461;-64
2021/12/02 03:09:38;;;;;;;1.20;1.00;;;5.70;98.00;;;;;;5014514;28;20460;-64
2021/12/02 03:12:12;;;;;;;1.20;0.97;;;5.80;98.00;;;;;;5014816;28;20483;-64
2021/12/02 03:14:52;;;;;;;1.20;1.00;;;5.90;98.00;;;;;;5014778;28;20461;-64
2021/12/02 03:17:18;;;;;;;1.20;1.00;;;5.80;98.00;;;;;;5014255;28;20574;-64
2021/12/02 03:19:47;;;;;;;1.20;1.00;;;5.80;98.00;;;;;;5014584;28;20495;-64
2021/12/02 03:22:16;;;;;;;7.80;1.73;;;5.80;98.00;;;;;;5014284;28;20456;-65
2021/12/02 03:24:44;;;;;;;1.30;1.13;;;5.70;98.00;;;;;;5014365;28;20460;-64
2021/12/02 03:27:13;;;;;;;1.20;1.00;;;5.70;98.00;;;;;;5013125;28;20923;-65
2021/12/02 03:29:41;;;;;;;1.20;1.00;;;5.60;98.00;;;;;;5013078;28;20506;-64
2021/12/02 03:32:09;;;;;;;1.20;1.00;;;5.70;98.00;;;;;;5013873;28;20452;-64
2021/12/02 03:34:38;;;;;;;1.20;1.00;;;5.80;98.00;;;;;;5014137;28;20455;-64
2021/12/02 03:37:05;;;;;;;1.20;1.00;;;5.80;98.00;;;;;;5014043;28;20515;-64
2021/12/02 03:39:33;;;;;;;1.20;0.97;;;5.90;98.00;;;;;;5012766;28;20993;-64
2021/12/02 03:42:00;;;;;;;1.20;1.00;;;5.90;98.00;;;;;;5013821;28;20487;-64
2021/12/02 03:44:28;;;;;;;1.77;1.40;;;5.80;98.00;;;;;;5013825;28;20464;-65
2021/12/02 03:46:56;;;;;;;1.20;1.00;;;5.80;98.00;;;;;;5013831;28;20484;-64
2021/12/02 03:49:24;;;;;;;1.20;1.00;;;5.80;98.00;;;;;;5013774;28;20990;-65
2021/12/02 03:51:51;;;;;;;1.20;1.00;;;5.70;98.00;;;;;;5013760;28;20537;-64
2021/12/02 03:54:18;;;;;;;1.20;1.00;;;5.70;98.00;;;;;;5013557;28;20517;-65
2021/12/02 03:56:45;;;;;;;1.20;1.00;;;5.70;98.00;;;;;;5013478;28;20575;-65
2021/12/02 03:59:13;;;;;;;1.20;1.00;;;5.70;98.00;;;;;;5013472;28;20462;-64
2021/12/02 04:01:43;;;;;;;1.20;1.00;;;5.70;98.00;;;;;;5013497;28;20464;-65
2021/12/02 04:04:10;;;;;;;1.20;1.20;;;5.80;98.00;;;;;;5013400;28;20461;-65
2021/12/02 04:06:37;;;;;;;1.50;1.10;;;5.70;98.00;;;;;;5013544;28;20546;-65
2021/12/02 04:09:12;;;;;;;1.20;1.00;;;5.70;98.00;;;;;;5013324;28;20460;-64
2021/12/02 04:11:43;;;;;;;1.20;1.00;;;5.70;98.00;;;;;;5013353;28;20462;-65
2021/12/02 04:14:19;;;;;;;1.20;1.00;;;5.70;98.00;;;;;;5013251;28;20467;-64
2021/12/02 04:16:55;;;;;;;1.20;0.93;;;5.70;98.00;;;;;;5013178;28;20482;-65
2021/12/02 04:19:23;;;;;;;1.20;1.10;;;5.60;98.00;;;;;;5013295;28;20452;-64
2021/12/02 04:21:50;;;;;;;1.20;0.93;;;5.60;98.00;;;;;;5013472;28;20465;-64
2021/12/02 04:24:17;;;;;;;1.20;1.00;;;5.60;98.00;;;;;;5013097;28;20486;-65
2021/12/02 04:26:45;;;;;;;1.60;1.33;;;5.50;98.00;;;;;;5013358;28;20456;-65
2021/12/02 04:29:12;;;;;;;1.20;0.90;;;5.50;98.00;;;;;;5012965;28;20492;-65
2021/12/02 04:31:42;;;;;;;1.20;1.10;;;5.50;98.00;;;;;;5013525;28;21221;-64
2021/12/02 04:34:11;;;;;;;1.20;1.00;;;5.50;98.00;;;;;;5013204;28;20461;-64
2021/12/02 04:36:39;;;;;;;1.20;1.00;;;5.60;98.00;;;;;;5013316;28;20491;-64
2021/12/02 04:39:06;;;;;;;1.20;0.90;;;5.50;98.00;;;;;;5012961;28;21021;-64
2021/12/02 04:41:33;;;;;;;1.20;1.00;;;5.50;98.00;;;;;;5012849;28;20486;-64
2021/12/02 04:44:00;;;;;;;1.20;1.00;;;5.50;98.00;;;;;;5012707;28;20460;-65
2021/12/02 04:46:28;;;;;;;1.20;1.00;;;5.50;98.00;;;;;;5012936;28;20491;-64
2021/12/02 04:48:55;;;;;;;1.20;1.00;;;5.50;98.00;;;;;;5012675;28;20492;-64
2021/12/02 04:51:24;;;;;;;1.20;0.90;;;5.60;98.00;;;;;;5012191;28;20485;-64
2021/12/02 04:53:51;;;;;;;1.20;1.00;;;5.70;98.00;;;;;;5011877;28;20517;-65
2021/12/02 04:56:19;;;;;;;1.20;1.00;;;5.70;98.00;;;;;;5011694;28;20510;-64
2021/12/02 04:58:46;;;;;;;1.20;1.00;;;5.60;98.00;;;;;;5012213;28;20514;-64
2021/12/02 05:01:14;;;;;;;1.30;1.10;;;5.60;98.00;;;;;;5012235;28;20463;-64
2021/12/02 05:03:41;;;;;;;1.20;1.00;;;5.50;98.00;;;;;;5012152;28;20471;-64
2021/12/02 05:06:08;;;;;;;1.20;1.00;;;5.40;98.00;;;;;;5012365;28;20460;-64
2021/12/02 05:08:37;;;;;;;1.20;1.00;;;5.40;98.00;;;;;;5012287;28;20498;-65
2021/12/02 05:11:04;;;;;;;1.20;1.00;;;5.40;98.00;;;;;;5012188;28;20468;-66
2021/12/02 05:13:31;;;;;;;1.20;0.93;;;5.40;98.00;;;;;;5012154;28;20562;-64
2021/12/02 05:15:58;;;;;;;1.20;0.90;;;5.40;98.00;;;;;;5011213;28;20460;-64
2021/12/02 05:18:29;;;;;;;1.20;0.90;;;5.40;98.00;;;;;;5012001;28;20520;-64
2021/12/02 05:20:57;;;;;;;1.20;0.90;;;5.40;98.00;;;;;;5011945;28;20549;-65
2021/12/02 05:23:24;;;;;;;1.20;1.10;;;5.40;98.00;;;;;;5012100;28;20462;-65
2021/12/02 05:25:53;;;;;;;3.93;1.40;;;5.40;98.00;;;;;;5011849;28;20495;-64
2021/12/02 05:28:20;;;;;;;1.20;0.90;;;5.40;98.00;;;;;;5012206;28;20460;-64
2021/12/02 05:30:49;;;;;;;1.20;1.00;;;5.40;98.00;;;;;;5012169;28;20530;-65
2021/12/02 05:33:16;;;;;;;1.20;0.90;;;5.50;98.00;;;;;;5012096;28;20527;-65
2021/12/02 05:35:45;;;;;;;1.20;1.00;;;5.50;98.00;;;;;;5011170;28;20491;-64
2021/12/02 05:38:12;;;;;;;1.20;0.90;;;5.40;98.00;;;;;;5011893;28;20488;-64
2021/12/02 05:40:39;;;;;;;1.20;1.00;;;5.40;98.00;;;;;;5012149;28;20464;-64
2021/12/02 05:43:08;;;;;;;1.20;1.00;;;5.50;98.00;;;;;;5012139;28;20790;-65
2021/12/02 05:45:35;;;;;;;1.20;1.00;;;5.50;98.00;;;;;;5012037;28;20525;-64
2021/12/02 05:48:03;;;;;;;1.20;1.00;;;5.50;98.00;;;;;;5011951;28;20563;-64
2021/12/02 05:50:30;;;;;;;1.20;1.00;;;5.50;98.00;;;;;;5010444;28;20526;-64
2021/12/02 05:52:57;;;;;;;1.20;1.00;;;5.40;98.00;;;;;;5014863;28;20561;-64
2021/12/02 05:55:24;;;;;;;1.20;1.00;;;5.50;98.00;;;;;;5015992;28;20974;-64
2021/12/02 05:57:51;;;;;;;1.20;0.93;;;5.40;98.00;;;;;;5016010;28;21050;-64
2021/12/02 06:00:20;;;;;;;1.20;0.97;;;5.40;98.00;;;;;;5015873;28;20468;-64
2021/12/02 06:02:50;;;;;;;1.40;1.10;;;5.40;98.00;;;;;;5015882;28;20463;-64
2021/12/02 06:05:19;;;;;;;1.20;1.00;;;5.50;98.00;;;;;;5015604;28;20460;-64
2021/12/02 06:07:49;;;;;;;1.20;1.00;;;5.40;98.00;;;;;;5015530;28;20827;-63
2021/12/02 06:10:16;;;;;;;1.70;1.17;;;5.30;98.00;;;;;;5015500;28;20509;-64
2021/12/02 06:12:44;;;;;;;1.20;1.00;;;5.30;98.00;;;;;;5015642;28;20781;-65
2021/12/02 06:15:12;;;;;;;1.20;1.00;;;5.30;98.00;;;;;;5015448;28;20522;-64
2021/12/02 06:17:42;;;;;;;1.30;1.10;;;5.50;98.00;;;;;;5014244;28;20566;-64
2021/12/02 06:20:11;;;;;;;1.20;1.00;;;5.50;98.00;;;;;;5015374;28;20459;-64
2021/12/02 06:22:38;;;;;;;1.20;1.00;;;5.40;98.00;;;;;;5015372;28;21191;-64
2021/12/02 06:25:43;;;;;;;1.20;1.00;;;5.50;98.00;;;;;;5015257;28;20871;-65
2021/12/02 06:28:05;;;;;;;1.20;0.90;;;5.50;98.00;;;;;;5015054;28;20454;-65
2021/12/02 06:30:32;;;;;;;1.20;1.00;;;5.40;98.00;;;;;;5015255;28;20995;-65
2021/12/02 06:33:00;;;;;;;1.20;0.90;;;5.30;98.00;;;;;;5014979;28;20514;-64
2021/12/02 06:35:29;;;;;;;1.20;1.07;;;5.30;98.00;;;;;;5013920;28;20483;-64
2021/12/02 06:37:56;;;;;;;1.20;1.10;;;5.30;98.00;;;;;;5015170;28;20527;-65
2021/12/02 06:40:23;;;;;;;1.20;0.90;;;5.30;98.00;;;;;;5014965;28;20495;-64
2021/12/02 06:42:51;;;;;;;1.20;0.90;;;5.30;98.00;;;;;;5015072;28;20464;-64
2021/12/02 06:45:22;;;;;;;1.20;1.00;;;5.30;98.00;;;;;;5015007;28;20463;-64
2021/12/02 06:47:51;;;;;;;1.20;1.00;;;5.30;98.00;;;;;;5015060;28;20513;-64
2021/12/02 06:50:21;;;;;;;1.20;1.00;;;5.30;98.00;;;;;;5014776;28;20525;-64
2021/12/02 06:52:49;;;;;;;1.20;1.00;;;5.30;98.00;;;;;;5014960;28;20517;-64
2021/12/02 06:55:17;;;;;;;1.20;1.00;;;5.30;98.00;;;;;;5014862;28;20483;-64
2021/12/02 06:57:44;;;;;;;1.20;1.00;;;5.20;98.00;;;;;;5014763;28;20582;-65
2021/12/02 07:00:15;;;;;;;1.20;1.00;;;5.20;98.00;;;;;;5014578;28;20463;-65
2021/12/02 07:02:43;;;;;;;1.20;1.00;;;5.20;98.00;;;;;;5014208;28;20495;-65
2021/12/02 07:05:12;;;;;;;1.20;1.00;;;5.20;98.00;;;;;;5013726;28;20514;-64
2021/12/02 07:07:41;;;;;;;1.20;1.00;;;5.20;98.00;;;;;;5014847;28;20464;-65
2021/12/02 07:10:10;;;;;;;1.20;1.10;;;5.20;98.00;;;;;;5014453;28;20459;-66
2021/12/02 07:12:39;;;;;;;1.20;1.00;;;5.20;98.00;;;;;;5013589;28;20509;-64
2021/12/02 07:15:11;;;;;;;1.30;1.10;;;5.20;98.00;;;;;;5014452;28;20455;-64
2021/12/02 07:17:39;;;;;;;1.20;0.90;;;5.30;98.00;;;;;;5014457;28;20487;-64
2021/12/02 07:20:08;;;;;;;1.20;1.00;;;5.20;98.00;;;;;;5014585;28;20805;-64
2021/12/02 07:22:36;;;;;;;1.20;1.00;;;5.20;98.00;;;;;;5014375;28;20498;-64
2021/12/02 07:25:06;;;;;;;1.20;1.00;;;5.10;98.00;;;;;;5014447;28;20456;-64
2021/12/02 07:27:33;;;;;;;1.20;0.90;;;5.10;98.00;;;;;;5014006;28;20496;-64
2021/12/02 07:30:00;;;;;;;1.20;0.97;;;5.20;98.00;;;;;;5014081;28;20458;-64
2021/12/02 07:32:36;;;;;;;1.20;0.90;;;5.20;98.00;;;;;;5014271;28;20484;-64
2021/12/02 07:35:08;;;;;;;1.20;0.90;;;5.10;98.00;;;;;;5013984;28;20501;-64
2021/12/02 07:37:35;;;;;;;1.20;1.00;;;5.10;98.00;;;;;;5013750;28;20566;-64
2021/12/02 07:40:09;;;;;;;1.20;1.00;;;5.20;98.00;;;;;;5013874;28;20496;-64
2021/12/02 07:42:36;;;;;;;1.40;1.00;;;5.10;98.00;;;;;;5014023;28;20954;-64
2021/12/02 07:45:05;;;;;;;1.20;1.00;;;5.20;98.00;;;;;;5013503;28;20997;-64
2021/12/02 07:47:33;;;;;;;1.20;1.00;;;5.20;98.00;;;;;;5013822;28;20464;-62
2021/12/02 07:50:01;;;;;;;1.20;1.00;;;5.20;98.00;;;;;;5013915;28;21020;-63
2021/12/02 07:52:30;;;;;;;1.30;1.20;;;5.30;98.00;;;;;;5013347;28;20942;-62
2021/12/02 07:55:05;;;;;;;1.20;1.00;;;5.50;98.00;;;;;;5012336;28;20498;-63
2021/12/02 07:57:34;;;;;;;1.20;1.00;;;5.50;98.00;;;;;;5013605;28;20483;-63
2021/12/02 08:00:01;;;;;;;1.20;1.00;;;5.60;98.00;;;;;;5013454;28;20503;-62
2021/12/02 08:02:33;;;;;;;1.20;1.00;;;5.70;98.00;;;;;;5013319;28;20951;-64
2021/12/02 08:05:00;;;;;;;1.20;1.00;;;5.90;98.00;;;;;;5013475;28;20836;-63
2021/12/02 08:07:27;;;;;;;1.20;0.90;;;5.90;98.00;;;;;;5013397;28;20515;-64
2021/12/02 08:09:54;;;;;;;1.20;1.00;;;5.90;98.00;;;;;;5013416;28;20463;-62
2021/12/02 08:12:21;;;;;;;1.77;1.23;;;5.90;98.00;;;;;;5013427;28;20506;-63
2021/12/02 08:14:50;;;;;;;1.20;1.00;;;6.00;98.00;;;;;;5012704;28;20462;-62
2021/12/02 08:17:23;;;;;;;1.20;1.00;;;6.00;98.00;;;;;;5013022;28;20481;-63
2021/12/02 08:19:50;;;;;;;1.20;1.00;;;5.90;98.00;;;;;;5013200;28;20501;-62
2021/12/02 08:22:18;;;;;;;1.20;0.93;;;5.90;98.00;;;;;;5012066;28;20499;-62
2021/12/02 08:24:45;;;;;;;1.77;1.43;;;6.00;98.00;;;;;;5011937;28;20619;-62
2021/12/02 08:27:12;;;;;;;1.20;0.97;;;6.10;98.00;;;;;;5013113;28;20499;-63
2021/12/02 08:29:39;;;;;;;1.20;1.00;;;6.20;98.00;;;;;;5013149;28;20473;-63
2021/12/02 08:32:09;;;;;;;1.20;1.00;;;6.20;98.00;;;;;;5013321;28;20454;-63
2021/12/02 08:34:37;;;;;;;1.20;1.00;;;6.20;98.00;;;;;;5013199;28;20877;-62
2021/12/02 08:37:06;;;;;;;1.20;1.00;;;6.20;98.00;;;;;;5013079;28;20507;-62
2021/12/02 08:39:33;;;;;;;1.20;1.10;;;6.20;98.00;;;;;;5013079;28;20488;-64
2021/12/02 08:42:03;;;;;;;1.20;1.00;;;6.20;98.00;;;;;;5013201;28;20452;-63
2021/12/02 08:44:32;;;;;;;1.20;0.90;;;6.20;98.00;;;;;;5012688;28;20458;-63
2021/12/02 08:46:59;;;;;;;1.20;1.00;;;6.20;98.00;;;;;;5013083;28;20506;-63
2021/12/02 08:49:28;;;;;;;1.20;1.00;;;6.20;98.00;;;;;;5012487;28;20456;-64
2021/12/02 08:51:55;;;;;;;1.17;1.00;;;6.30;98.00;;;;;;5012475;28;20531;-62
2021/12/02 08:54:22;;;;;;;1.20;1.00;;;6.30;98.00;;;;;;5012518;28;20474;-64
2021/12/02 08:56:49;;;;;;;1.20;1.00;;;6.40;98.00;;;;;;5012552;28;20526;-62
2021/12/02 08:59:16;;;;;;;1.20;1.00;;;6.30;98.00;;;;;;5012105;28;20519;-63
2021/12/02 09:01:44;;;;;;;1.20;0.90;;;6.30;98.00;;;;;;5009561;28;20507;-63
2021/12/02 09:04:11;;;;;;;3.00;1.00;;;6.40;98.00;;;;;;5009641;28;20521;-62
2021/12/02 09:06:39;;;;;;;1.20;1.00;;;6.40;98.00;;;;;;5008390;28;20460;-63
2021/12/02 09:09:07;;;;;;;1.20;1.00;;;6.50;98.00;;;;;;5009088;28;20877;-63
2021/12/02 09:11:34;;;;;;;1.20;1.00;;;6.50;98.00;;;;;;5009874;28;20465;-62
2021/12/02 09:14:04;;;;;;;1.30;1.10;;;6.40;98.00;;;;;;5009557;28;20455;-62
2021/12/02 09:16:32;;;;;;;1.20;0.97;;;6.40;98.00;;;;;;5009751;28;20952;-62
2021/12/02 09:18:59;;;;;;;1.20;0.90;;;6.30;98.00;;;;;;5009412;28;20492;-63
2021/12/02 09:21:27;;;;;;;1.30;1.00;;;6.30;98.00;;;;;;5009440;28;20456;-62
2021/12/02 09:23:55;;;;;;;1.20;0.90;;;6.20;98.00;;;;;;5009440;28;20806;-65
2021/12/02 09:26:23;;;;;;;1.50;1.03;;;6.20;98.00;;;;;;5008880;28;20476;-64
2021/12/02 09:28:53;;;;;;;1.20;1.00;;;6.20;98.00;;;;;;5009648;28;20947;-63
2021/12/02 09:31:21;;;;;;;1.50;1.27;;;6.30;98.00;;;;;;5009521;28;20949;-64
2021/12/02 09:33:49;;;;;;;1.20;0.90;;;6.30;98.00;;;;;;5009485;28;20855;-65
2021/12/02 09:36:18;;;;;;;1.20;1.03;;;6.40;98.00;;;;;;5008013;28;20456;-64
2021/12/02 09:38:48;;;;;;;1.20;1.00;;;6.60;98.00;;;;;;5009574;28;20852;-63
2021/12/02 09:41:17;;;;;;;1.20;1.00;;;6.60;98.00;;;;;;5008287;28;20461;-63
2021/12/02 09:43:44;;;;;;;1.20;1.00;;;6.60;98.00;;;;;;5008936;28;20941;-64
2021/12/02 09:46:11;;;;;;;1.20;1.00;;;6.70;98.00;;;;;;5009361;28;20476;-63
2021/12/02 09:48:39;;;;;;;1.20;1.00;;;6.70;98.00;;;;;;5009477;28;20518;-65
2021/12/02 09:51:08;;;;;;;1.20;1.00;;;6.70;98.00;;;;;;5007363;28;20452;-64
2021/12/02 09:53:39;;;;;;;1.20;1.00;;;6.70;98.00;;;;;;5009580;28;20628;-66
2021/12/02 09:56:15;;;;;;;1.20;0.93;;;6.70;98.00;;;;;;5009709;28;20974;-65
2021/12/02 09:58:43;;;;;;;1.20;1.00;;;6.60;98.00;;;;;;5009330;28;20500;-61
2021/12/02 10:01:13;;;;;;;1.20;1.07;;;6.50;98.00;;;;;;5009389;28;20856;-63
2021/12/02 10:03:42;;;;;;;1.20;1.00;;;6.60;98.00;;;;;;5009185;28;20473;-64
2021/12/02 10:06:14;;;;;;;1.20;0.90;;;6.60;98.00;;;;;;5007948;28;20810;-62
2021/12/02 10:08:51;;;;;;;1.20;1.10;;;6.50;98.00;;;;;;5007927;28;20454;-64
2021/12/02 10:11:28;;;;;;;4.70;1.40;;;6.50;98.00;;;;;;5002012;28;20526;-63
2021/12/02 10:14:10;;;;;;;1.20;1.00;;;6.50;98.00;;;;;;5008689;28;21548;-64
2021/12/02 10:16:41;;;;;;;1.20;1.00;;;6.50;98.00;;;;;;5008466;28;20514;-63
2021/12/02 10:19:10;;;;;;;1.40;1.00;;;6.40;98.00;;;;;;5008648;28;21032;-62
2021/12/02 10:21:41;;;;;;;1.20;1.00;;;6.40;98.00;;;;;;5008860;28;20534;-64
2021/12/02 10:24:11;;;;;;;1.37;1.00;;;6.40;98.00;;;;;;5008585;28;20478;-63
2021/12/02 10:26:42;;;;;;;1.17;1.00;;;6.40;98.00;;;;;;5007641;28;20550;-63
2021/12/02 10:29:17;;;;;;;1.20;1.00;;;6.30;98.00;;;;;;5008617;28;20962;-63
2021/12/02 10:31:47;;;;;;;1.20;1.00;;;6.20;98.00;;;;;;5008724;28;20550;-65
2021/12/02 10:34:16;;;;;;;1.20;0.90;;;5.90;98.00;;;;;;5008812;28;20946;-63
2021/12/02 10:36:45;;;;;;;1.20;1.00;;;5.00;98.00;;;;;;5008902;28;20510;-63
2021/12/02 10:39:16;;;;;;;1.20;1.00;;;4.40;98.00;;;;;;5011517;28;20899;-63
2021/12/02 10:41:45;;;;;;;1.20;1.00;;;4.20;98.00;;;;;;5012393;28;20466;-63
2021/12/02 10:44:19;;;;;;;1.10;0.90;;;4.00;98.00;;;;;;5012370;28;20521;-64
2021/12/02 10:46:56;;;;;;;1.20;1.00;;;3.90;98.00;;;;;;5012746;28;20466;-63
2021/12/02 10:49:24;;;;;;;1.17;1.00;;;3.90;98.00;;;;;;5010326;28;20537;-64
2021/12/02 10:51:53;;;;;;;1.10;1.00;;;3.90;98.00;;;;;;5012370;28;20541;-63
2021/12/02 10:54:22;;;;;;;1.20;1.00;;;3.90;98.00;;;;;;5012565;28;20526;-62
2021/12/02 10:56:52;;;;;;;1.17;1.03;;;4.00;98.00;;;;;;5012478;28;20526;-63
2021/12/02 10:59:44;;;;;;;1.10;0.90;;;4.10;98.00;;;;;;5004101;28;20574;-64
2021/12/02 11:02:34;;;;;;;1.10;0.90;;;4.00;98.00;;;;;;5007219;28;20520;-62
2021/12/02 11:05:06;;;;;;;1.10;0.90;;;4.20;98.00;;;;;;5008443;28;20471;-64
2021/12/02 11:07:36;;;;;;;1.90;1.53;;;4.40;98.00;;;;;;5011959;28;20468;-63
2021/12/02 11:10:06;;;;;;;1.10;1.00;;;4.40;98.00;;;;;;5011842;28;20475;-63
2021/12/02 11:12:35;;;;;;;1.53;1.17;;;4.40;98.00;;;;;;5012099;28;20514;-63
2021/12/02 11:15:09;;;;;;;1.30;1.10;;;4.50;98.00;;;;;;5011892;28;20521;-63
2021/12/02 11:17:40;;;;;;;1.10;1.00;;;4.40;98.00;;;;;;5012072;28;20490;-65
2021/12/02 11:20:10;;;;;;;1.10;1.00;;;4.40;98.00;;;;;;5012145;28;20491;-62
2021/12/02 11:22:40;;;;;;;2.80;1.27;;;4.40;98.00;;;;;;5011953;28;20495;-64
2021/12/02 11:25:10;;;;;;;1.10;0.90;;;4.50;98.00;;;;;;5010348;28;20978;-63
2021/12/02 11:27:39;;;;;;;1.10;1.00;;;4.50;98.00;;;;;;5011770;28;20946;-63
2021/12/02 11:30:16;;;;;;;1.10;0.90;;;4.50;98.00;;;;;;5011579;28;20509;-64
2021/12/02 11:32:46;;;;;;;1.10;0.90;;;4.60;98.00;;;;;;5011744;28;20464;-63
2021/12/02 11:35:21;;;;;;;1.10;1.07;;;4.60;98.00;;;;;;5011198;28;20549;-63
2021/12/02 11:37:52;;;;;;;1.10;1.00;;;4.60;98.00;;;;;;5011429;28;20467;-64
2021/12/02 11:40:21;;;;;;;1.10;1.10;;;4.80;98.00;;;;;;5011112;28;21096;-64
2021/12/02 11:42:50;;;;;;;1.10;1.00;;;4.90;98.00;;;;;;5011156;28;21051;-64
2021/12/02 11:45:22;;;;;;;1.10;1.10;;;4.90;98.00;;;;;;5010846;28;20459;-63
2021/12/02 11:47:50;;;;;;;1.10;1.00;;;5.00;98.00;;;;;;5009936;28;20965;-64
2021/12/02 11:50:19;;;;;;;1.10;1.00;;;5.00;98.00;;;;;;5008385;28;20620;-63
2021/12/02 11:52:47;;;;;;;1.10;1.00;;;5.00;98.00;;;;;;5011314;28;20953;-66
2021/12/02 11:55:16;;;;;;;1.10;1.00;;;5.00;98.00;;;;;;5011199;28;20518;-63
2021/12/02 11:57:45;;;;;;;1.10;1.00;;;5.00;98.00;;;;;;5011089;28;20602;-63
2021/12/02 12:00:14;;;;;;;1.10;1.00;;;5.00;98.00;;;;;;5010815;28;20487;-64
2021/12/02 12:02:50;;;;;;;1.30;1.17;;;5.00;98.00;;;;;;5010727;28;20463;-63
2021/12/02 12:05:23;;;;;;;1.10;1.00;;;5.10;98.00;;;;;;5010938;28;20926;-64
2021/12/02 12:07:50;;;;;;;1.10;1.00;;;5.00;98.00;;;;;;5009862;28;20495;-63
2021/12/02 12:10:22;;;;;;;2.43;1.43;;;5.10;98.00;;;;;;5010731;28;20468;-63
2021/12/02 12:12:51;;;;;;;1.10;0.90;;;5.10;98.00;;;;;;5010750;28;20554;-63
2021/12/02 12:15:40;;;;;;;1.10;0.90;;;4.90;98.00;;;;;;5010941;28;20460;-63
2021/12/02 12:18:20;;;;;;;1.30;1.10;;;4.70;98.00;;;;;;5010966;28;20489;-63
2021/12/02 12:21:12;;;;;;;1.10;0.90;;;4.60;98.00;;;;;;5009662;28;20460;-64
2021/12/02 12:23:42;;;;;;;1.10;0.90;;;4.60;98.00;;;;;;5005426;28;20460;-64
2021/12/02 12:26:29;;;;;;;1.10;1.00;;;4.50;98.00;;;;;;5010534;28;20518;-62
2021/12/02 12:29:19;;;;;;;1.10;0.90;;;4.60;98.00;;;;;;5010747;28;20502;-64
2021/12/02 12:35:40;;;;;;;1.40;1.30;;;4.70;98.00;;;;;;5005867;28;20529;-63
2021/12/02 12:38:30;;;;;;;1.20;1.00;;;4.90;98.00;;;;;;5010790;28;20460;-63
2021/12/02 12:41:01;;;;;;;1.10;1.00;;;4.90;98.00;;;;;;5002409;28;21031;-63
2021/12/02 12:43:39;;;;;;;1.10;0.90;;;4.90;98.00;;;;;;5010504;28;20859;-64
2021/12/02 12:46:13;;;;;;;1.10;0.90;;;4.80;98.00;;;;;;5010568;28;20546;-65
2021/12/02 12:48:42;;;;;;;1.10;1.00;;;5.00;98.00;;;;;;5010169;28;20526;-63
2021/12/02 12:51:23;;;;;;;1.10;1.00;;;4.80;98.00;;;;;;5008248;28;20537;-64
2021/12/02 12:53:52;;;;;;;1.10;1.00;;;4.60;98.00;;;;;;5010013;28;20497;-63
2021/12/02 12:56:26;;;;;;;1.10;1.00;;;4.60;98.00;;;;;;5010094;28;20471;-62
2021/12/02 12:59:02;;;;;;;1.10;1.00;;;4.60;98.00;;;;;;5009969;28;20483;-63
2021/12/02 13:01:29;;;;;;;1.10;1.00;;;4.70;98.00;;;;;;5009891;28;20467;-63
2021/12/02 13:04:15;;;;;;;1.10;0.90;;;4.90;98.00;;;;;;5010316;28;20472;-63
2021/12/02 13:07:09;;;;;;;1.10;0.90;;;6.00;98.00;;;;;;5003144;28;20903;-62
2021/12/02 13:09:56;;;;;;;1.20;1.00;;;6.10;98.00;;;;;;5009670;28;20456;-62
2021/12/02 13:12:49;;;;;;;1.10;1.00;;;5.70;98.00;;;;;;5010105;28;20468;-63
2021/12/02 13:15:19;;;;;;;1.20;1.00;;;5.30;98.00;;;;;;5002111;28;20812;-63
2021/12/02 13:17:48;;;;;;;1.30;1.10;;;5.30;98.00;;;;;;5009635;28;20465;-62
2021/12/02 13:20:31;;;;;;;1.10;0.90;;;5.10;98.00;;;;;;5009647;28;20495;-62